This is the latest recevied weather packets stored in our database for station/object LU8AQL-WX. If no packets are shown the sender has not sent any weather packets the latest 10 day(s).
| Time | Temp. | Humidity | Pressure | Rain* | Wind** | Luminosity | Snow |
|---|---|---|---|---|---|---|---|
| 1787371154 | 6.11° C | 71% | 1027 hPa | 0 mm | - | - | - |
| 1787370553 | 6.67° C | 69% | 1027 hPa | 0 mm | - | - | - |
| 1787369952 | 6.67° C | 69% | 1027 hPa | 0 mm | - | - | - |
| 1787369351 | 6.67° C | 69% | 1026 hPa | 0 mm | - | - | - |
| 1787368750 | 6.67° C | 69% | 1026 hPa | 0 mm | - | - | - |
| 1787368149 | 6.67° C | 68% | 1026 hPa | 0 mm | - | - | - |
| 1787367548 | 6.67° C | 68% | 1027 hPa | 0 mm | - | - | - |
| 1787366947 | 6.67° C | 66% | 1027 hPa | 0 mm | - | - | - |
| 1787366346 | 6.67° C | 66% | 1027 hPa | 0 mm | - | - | - |
| 1787365744 | 7.22° C | 65% | 1026 hPa | 0 mm | - | - | - |
| 1787365144 | 6.67° C | 67% | 1026 hPa | 0 mm | - | - | - |
| 1787364543 | 6.67° C | 67% | 1026 hPa | 0 mm | - | - | - |
| 1787363942 | 6.67° C | 67% | 1027 hPa | 0 mm | - | - | - |
| 1787363341 | 6.67° C | 67% | 1027 hPa | 0 mm | - | - | - |
| 1787362730 | 6.11° C | 69% | 1027 hPa | 0 mm | - | - | - |
| 1787362129 | 6.11° C | 67% | 1026 hPa | 0 mm | - | - | - |
| 1787361528 | 7.78° C | 59% | 1025 hPa | 0 mm | - | - | - |
| 1787360927 | 7.78° C | 58% | 1025 hPa | 0 mm | - | - | - |
| 1787360326 | 7.78° C | 58% | 1026 hPa | 0 mm | - | - | - |
| 1787359725 | 7.78° C | 58% | 1026 hPa | 0 mm | - | - | - |
| 1787359124 | 7.22° C | 61% | 1026 hPa | 0 mm | - | - | - |
| 1787358523 | 7.78° C | 61% | 1026 hPa | 0 mm | - | - | - |
| 1787357907 | 7.78° C | 61% | 1025 hPa | 0 mm | - | - | - |
| 1787357305 | 7.78° C | 61% | 1025 hPa | 0 mm | - | - | - |
* Rain latest hour (hover to see other rain measurements)
** Current wind speed in m/s (hover to see current wind gust speed)